sensor_id;sensor_type;location;lat;lon;timestamp;P1;durP1;ratioP1;P2;durP2;ratioP2
32800;SDS011;40572;45.552;12.072;2022-12-07T00:00:54;12.10;;;10.60;;
32800;SDS011;40572;45.552;12.072;2022-12-07T00:03:20;14.40;;;10.68;;
32800;SDS011;40572;45.552;12.072;2022-12-07T00:05:46;11.50;;;10.30;;
32800;SDS011;40572;45.552;12.072;2022-12-07T00:08:13;11.48;;;10.32;;
32800;SDS011;40572;45.552;12.072;2022-12-07T00:10:39;11.03;;;9.73;;
32800;SDS011;40572;45.552;12.072;2022-12-07T00:13:05;10.55;;;9.50;;
32800;SDS011;40572;45.552;12.072;2022-12-07T00:15:33;10.68;;;9.58;;
32800;SDS011;40572;45.552;12.072;2022-12-07T00:17:59;11.13;;;9.93;;
32800;SDS011;40572;45.552;12.072;2022-12-07T00:20:24;10.80;;;9.70;;
32800;SDS011;40572;45.552;12.072;2022-12-07T00:22:51;13.08;;;10.20;;
32800;SDS011;40572;45.552;12.072;2022-12-07T00:25:17;10.78;;;9.48;;
32800;SDS011;40572;45.552;12.072;2022-12-07T00:27:43;11.10;;;9.50;;
32800;SDS011;40572;45.552;12.072;2022-12-07T00:30:09;11.08;;;9.98;;
32800;SDS011;40572;45.552;12.072;2022-12-07T00:32:35;11.50;;;10.10;;
32800;SDS011;40572;45.552;12.072;2022-12-07T00:35:01;11.03;;;9.30;;
32800;SDS011;40572;45.552;12.072;2022-12-07T00:37:27;10.77;;;9.43;;
32800;SDS011;40572;45.552;12.072;2022-12-07T00:39:53;11.40;;;9.53;;
32800;SDS011;40572;45.552;12.072;2022-12-07T00:44:45;10.53;;;9.35;;
32800;SDS011;40572;45.552;12.072;2022-12-07T00:47:12;10.88;;;9.78;;
32800;SDS011;40572;45.552;12.072;2022-12-07T00:49:39;10.83;;;9.73;;
32800;SDS011;40572;45.552;12.072;2022-12-07T00:52:05;10.47;;;9.37;;
32800;SDS011;40572;45.552;12.072;2022-12-07T00:54:31;11.63;;;10.43;;
32800;SDS011;40572;45.552;12.072;2022-12-07T00:56:57;11.23;;;10.03;;
32800;SDS011;40572;45.552;12.072;2022-12-07T00:59:23;11.60;;;10.50;;
32800;SDS011;40572;45.552;12.072;2022-12-07T01:04:15;9.78;;;8.78;;
32800;SDS011;40572;45.552;12.072;2022-12-07T01:06:41;10.60;;;9.50;;
32800;SDS011;40572;45.552;12.072;2022-12-07T01:09:07;9.75;;;8.80;;
32800;SDS011;40572;45.552;12.072;2022-12-07T01:11:33;11.08;;;9.98;;
32800;SDS011;40572;45.552;12.072;2022-12-07T01:13:59;10.98;;;9.83;;
32800;SDS011;40572;45.552;12.072;2022-12-07T01:16:27;10.28;;;9.18;;
32800;SDS011;40572;45.552;12.072;2022-12-07T01:18:54;10.73;;;9.63;;
32800;SDS011;40572;45.552;12.072;2022-12-07T01:21:21;11.23;;;10.07;;
32800;SDS011;40572;45.552;12.072;2022-12-07T01:23:48;10.87;;;9.70;;
32800;SDS011;40572;45.552;12.072;2022-12-07T01:26:15;10.07;;;9.03;;
32800;SDS011;40572;45.552;12.072;2022-12-07T01:28:42;10.83;;;9.83;;
32800;SDS011;40572;45.552;12.072;2022-12-07T01:31:09;10.73;;;9.63;;
32800;SDS011;40572;45.552;12.072;2022-12-07T01:33:38;11.03;;;9.83;;
32800;SDS011;40572;45.552;12.072;2022-12-07T01:38:35;10.63;;;9.63;;
32800;SDS011;40572;45.552;12.072;2022-12-07T01:41:01;10.25;;;9.25;;
32800;SDS011;40572;45.552;12.072;2022-12-07T01:43:29;10.50;;;9.33;;
32800;SDS011;40572;45.552;12.072;2022-12-07T01:45:55;10.53;;;9.53;;
32800;SDS011;40572;45.552;12.072;2022-12-07T01:48:26;11.07;;;9.87;;
32800;SDS011;40572;45.552;12.072;2022-12-07T01:50:52;11.37;;;9.97;;
32800;SDS011;40572;45.552;12.072;2022-12-07T01:53:18;11.17;;;10.07;;
32800;SDS011;40572;45.552;12.072;2022-12-07T01:55:46;11.38;;;10.15;;
32800;SDS011;40572;45.552;12.072;2022-12-07T01:58:12;10.63;;;9.53;;
32800;SDS011;40572;45.552;12.072;2022-12-07T02:00:40;9.78;;;8.83;;
32800;SDS011;40572;45.552;12.072;2022-12-07T02:03:11;11.93;;;9.87;;
32800;SDS011;40572;45.552;12.072;2022-12-07T02:05:37;11.13;;;9.93;;
32800;SDS011;40572;45.552;12.072;2022-12-07T02:08:04;11.40;;;9.23;;
32800;SDS011;40572;45.552;12.072;2022-12-07T02:10:31;10.90;;;9.77;;
32800;SDS011;40572;45.552;12.072;2022-12-07T02:13:02;10.80;;;9.70;;
32800;SDS011;40572;45.552;12.072;2022-12-07T02:15:51;11.70;;;10.50;;
32800;SDS011;40572;45.552;12.072;2022-12-07T02:20:58;11.83;;;10.33;;
32800;SDS011;40572;45.552;12.072;2022-12-07T02:23:36;11.17;;;9.97;;
32800;SDS011;40572;45.552;12.072;2022-12-07T02:26:16;12.03;;;10.53;;
32800;SDS011;40572;45.552;12.072;2022-12-07T02:30:54;11.23;;;9.77;;
32800;SDS011;40572;45.552;12.072;2022-12-07T02:33:26;11.17;;;9.83;;
32800;SDS011;40572;45.552;12.072;2022-12-07T02:35:55;10.77;;;9.67;;
32800;SDS011;40572;45.552;12.072;2022-12-07T02:41:09;10.77;;;9.23;;
32800;SDS011;40572;45.552;12.072;2022-12-07T02:43:34;9.83;;;8.83;;
32800;SDS011;40572;45.552;12.072;2022-12-07T02:46:01;10.67;;;9.57;;
32800;SDS011;40572;45.552;12.072;2022-12-07T02:48:27;9.43;;;8.53;;
32800;SDS011;40572;45.552;12.072;2022-12-07T02:50:54;10.40;;;8.65;;
32800;SDS011;40572;45.552;12.072;2022-12-07T03:04:20;9.98;;;8.30;;
32800;SDS011;40572;45.552;12.072;2022-12-07T03:06:43;8.17;;;7.27;;
32800;SDS011;40572;45.552;12.072;2022-12-07T03:09:15;9.60;;;8.30;;
32800;SDS011;40572;45.552;12.072;2022-12-07T03:11:44;8.70;;;7.90;;
32800;SDS011;40572;45.552;12.072;2022-12-07T03:16:42;8.18;;;7.35;;
32800;SDS011;40572;45.552;12.072;2022-12-07T03:19:18;8.77;;;7.67;;
32800;SDS011;40572;45.552;12.072;2022-12-07T03:21:53;8.57;;;7.67;;
32800;SDS011;40572;45.552;12.072;2022-12-07T03:24:19;9.07;;;7.73;;
32800;SDS011;40572;45.552;12.072;2022-12-07T03:26:48;7.77;;;6.97;;
32800;SDS011;40572;45.552;12.072;2022-12-07T03:29:17;9.18;;;7.47;;
32800;SDS011;40572;45.552;12.072;2022-12-07T03:31:43;9.07;;;7.87;;
32800;SDS011;40572;45.552;12.072;2022-12-07T03:34:24;9.13;;;8.17;;
32800;SDS011;40572;45.552;12.072;2022-12-07T03:36:51;8.57;;;7.67;;
32800;SDS011;40572;45.552;12.072;2022-12-07T03:41:45;8.75;;;7.58;;
32800;SDS011;40572;45.552;12.072;2022-12-07T03:44:11;8.80;;;7.17;;
32800;SDS011;40572;45.552;12.072;2022-12-07T03:49:26;9.63;;;7.20;;
32800;SDS011;40572;45.552;12.072;2022-12-07T03:54:23;7.60;;;6.80;;
32800;SDS011;40572;45.552;12.072;2022-12-07T03:56:49;7.90;;;7.10;;
32800;SDS011;40572;45.552;12.072;2022-12-07T03:59:15;8.63;;;7.23;;
32800;SDS011;40572;45.552;12.072;2022-12-07T04:01:45;8.00;;;7.00;;
32800;SDS011;40572;45.552;12.072;2022-12-07T04:04:11;9.13;;;7.47;;
32800;SDS011;40572;45.552;12.072;2022-12-07T04:06:37;7.90;;;7.08;;
32800;SDS011;40572;45.552;12.072;2022-12-07T04:09:03;8.65;;;7.05;;
32800;SDS011;40572;45.552;12.072;2022-12-07T04:11:30;10.23;;;7.53;;
32800;SDS011;40572;45.552;12.072;2022-12-07T04:13:56;7.60;;;6.77;;
32800;SDS011;40572;45.552;12.072;2022-12-07T04:16:40;9.10;;;7.23;;
32800;SDS011;40572;45.552;12.072;2022-12-07T04:19:06;7.70;;;6.55;;
32800;SDS011;40572;45.552;12.072;2022-12-07T04:21:32;8.13;;;7.30;;
32800;SDS011;40572;45.552;12.072;2022-12-07T04:23:58;7.73;;;6.80;;
32800;SDS011;40572;45.552;12.072;2022-12-07T04:26:24;9.08;;;8.00;;
32800;SDS011;40572;45.552;12.072;2022-12-07T04:28:51;9.17;;;7.13;;
32800;SDS011;40572;45.552;12.072;2022-12-07T04:31:17;9.28;;;7.97;;
32800;SDS011;40572;45.552;12.072;2022-12-07T04:33:43;7.62;;;6.83;;
32800;SDS011;40572;45.552;12.072;2022-12-07T04:36:09;8.50;;;7.07;;
32800;SDS011;40572;45.552;12.072;2022-12-07T04:38:35;8.30;;;7.10;;
32800;SDS011;40572;45.552;12.072;2022-12-07T04:41:09;10.30;;;7.75;;
32800;SDS011;40572;45.552;12.072;2022-12-07T04:43:33;8.10;;;6.67;;
32800;SDS011;40572;45.552;12.072;2022-12-07T04:45:59;9.33;;;7.70;;
32800;SDS011;40572;45.552;12.072;2022-12-07T04:48:25;8.15;;;7.03;;
32800;SDS011;40572;45.552;12.072;2022-12-07T04:50:51;8.28;;;6.65;;
32800;SDS011;40572;45.552;12.072;2022-12-07T04:53:17;8.23;;;6.50;;
32800;SDS011;40572;45.552;12.072;2022-12-07T04:55:44;8.53;;;7.50;;
32800;SDS011;40572;45.552;12.072;2022-12-07T04:58:10;8.05;;;7.22;;
32800;SDS011;40572;45.552;12.072;2022-12-07T05:00:36;8.08;;;7.12;;
32800;SDS011;40572;45.552;12.072;2022-12-07T05:03:02;10.63;;;6.95;;
32800;SDS011;40572;45.552;12.072;2022-12-07T05:05:28;9.07;;;7.03;;
32800;SDS011;40572;45.552;12.072;2022-12-07T05:10:20;7.87;;;7.08;;
32800;SDS011;40572;45.552;12.072;2022-12-07T05:15:13;8.37;;;6.77;;
32800;SDS011;40572;45.552;12.072;2022-12-07T05:17:39;8.67;;;7.40;;
32800;SDS011;40572;45.552;12.072;2022-12-07T05:22:31;9.73;;;7.47;;
32800;SDS011;40572;45.552;12.072;2022-12-07T05:24:57;8.83;;;6.83;;
32800;SDS011;40572;45.552;12.072;2022-12-07T05:27:23;9.67;;;7.17;;
32800;SDS011;40572;45.552;12.072;2022-12-07T05:29:50;8.67;;;7.10;;
32800;SDS011;40572;45.552;12.072;2022-12-07T05:32:16;9.47;;;7.40;;
32800;SDS011;40572;45.552;12.072;2022-12-07T05:34:42;10.00;;;7.37;;
32800;SDS011;40572;45.552;12.072;2022-12-07T05:37:08;9.37;;;7.30;;
32800;SDS011;40572;45.552;12.072;2022-12-07T05:39:35;9.37;;;7.47;;
32800;SDS011;40572;45.552;12.072;2022-12-07T05:42:01;8.50;;;7.33;;
32800;SDS011;40572;45.552;12.072;2022-12-07T05:44:40;8.67;;;7.30;;
32800;SDS011;40572;45.552;12.072;2022-12-07T05:47:06;11.63;;;7.73;;
32800;SDS011;40572;45.552;12.072;2022-12-07T05:49:32;8.45;;;7.10;;
32800;SDS011;40572;45.552;12.072;2022-12-07T05:51:59;8.08;;;6.87;;
32800;SDS011;40572;45.552;12.072;2022-12-07T05:54:25;10.08;;;7.67;;
32800;SDS011;40572;45.552;12.072;2022-12-07T05:56:51;9.63;;;7.50;;
32800;SDS011;40572;45.552;12.072;2022-12-07T05:59:17;8.60;;;7.30;;
32800;SDS011;40572;45.552;12.072;2022-12-07T06:01:50;8.23;;;7.43;;
32800;SDS011;40572;45.552;12.072;2022-12-07T06:04:16;9.40;;;7.50;;
32800;SDS011;40572;45.552;12.072;2022-12-07T06:06:43;9.33;;;7.20;;
32800;SDS011;40572;45.552;12.072;2022-12-07T06:09:09;8.88;;;7.10;;
32800;SDS011;40572;45.552;12.072;2022-12-07T06:11:35;9.40;;;7.65;;
32800;SDS011;40572;45.552;12.072;2022-12-07T06:14:20;11.33;;;8.07;;
32800;SDS011;40572;45.552;12.072;2022-12-07T06:16:46;12.20;;;8.48;;
32800;SDS011;40572;45.552;12.072;2022-12-07T06:19:12;9.33;;;8.05;;
32800;SDS011;40572;45.552;12.072;2022-12-07T06:21:38;9.17;;;8.00;;
32800;SDS011;40572;45.552;12.072;2022-12-07T06:24:04;9.98;;;8.35;;
32800;SDS011;40572;45.552;12.072;2022-12-07T06:26:30;8.78;;;7.72;;
32800;SDS011;40572;45.552;12.072;2022-12-07T06:31:22;9.53;;;8.27;;
32800;SDS011;40572;45.552;12.072;2022-12-07T06:36:14;12.07;;;8.93;;
32800;SDS011;40572;45.552;12.072;2022-12-07T06:41:05;10.02;;;7.94;;
32800;SDS011;40572;45.552;12.072;2022-12-07T06:43:32;10.13;;;8.73;;
32800;SDS011;40572;45.552;12.072;2022-12-07T06:45:58;10.98;;;8.33;;
32800;SDS011;40572;45.552;12.072;2022-12-07T06:48:24;10.25;;;8.58;;
32800;SDS011;40572;45.552;12.072;2022-12-07T06:50:50;10.00;;;8.85;;
32800;SDS011;40572;45.552;12.072;2022-12-07T06:53:16;12.13;;;9.30;;
32800;SDS011;40572;45.552;12.072;2022-12-07T06:55:42;10.08;;;8.65;;
32800;SDS011;40572;45.552;12.072;2022-12-07T06:58:09;12.88;;;10.05;;
32800;SDS011;40572;45.552;12.072;2022-12-07T07:00:35;13.20;;;9.40;;
32800;SDS011;40572;45.552;12.072;2022-12-07T07:03:01;10.80;;;9.70;;
32800;SDS011;40572;45.552;12.072;2022-12-07T07:05:27;13.30;;;10.13;;
32800;SDS011;40572;45.552;12.072;2022-12-07T07:07:53;11.70;;;9.60;;
32800;SDS011;40572;45.552;12.072;2022-12-07T07:10:19;11.80;;;9.73;;
32800;SDS011;40572;45.552;12.072;2022-12-07T07:12:45;11.43;;;9.60;;
32800;SDS011;40572;45.552;12.072;2022-12-07T07:17:37;12.90;;;9.93;;
32800;SDS011;40572;45.552;12.072;2022-12-07T07:20:04;11.33;;;9.33;;
32800;SDS011;40572;45.552;12.072;2022-12-07T07:22:30;11.93;;;8.87;;
32800;SDS011;40572;45.552;12.072;2022-12-07T07:24:56;12.57;;;8.73;;
32800;SDS011;40572;45.552;12.072;2022-12-07T07:27:22;12.87;;;9.87;;
32800;SDS011;40572;45.552;12.072;2022-12-07T07:29:48;12.16;;;10.04;;
32800;SDS011;40572;45.552;12.072;2022-12-07T07:32:14;13.87;;;11.27;;
32800;SDS011;40572;45.552;12.072;2022-12-07T07:34:40;13.83;;;10.60;;
32800;SDS011;40572;45.552;12.072;2022-12-07T07:37:06;14.93;;;11.83;;
32800;SDS011;40572;45.552;12.072;2022-12-07T07:39:33;15.90;;;12.82;;
32800;SDS011;40572;45.552;12.072;2022-12-07T07:41:59;16.27;;;12.67;;
32800;SDS011;40572;45.552;12.072;2022-12-07T07:44:25;14.73;;;11.27;;
32800;SDS011;40572;45.552;12.072;2022-12-07T07:46:51;16.30;;;12.15;;
32800;SDS011;40572;45.552;12.072;2022-12-07T07:49:17;14.53;;;10.63;;
32800;SDS011;40572;45.552;12.072;2022-12-07T07:51:44;13.37;;;10.37;;
32800;SDS011;40572;45.552;12.072;2022-12-07T07:54:10;12.57;;;9.87;;
32800;SDS011;40572;45.552;12.072;2022-12-07T07:56:36;16.85;;;9.90;;
32800;SDS011;40572;45.552;12.072;2022-12-07T08:01:28;15.53;;;11.17;;
32800;SDS011;40572;45.552;12.072;2022-12-07T08:03:54;15.18;;;12.33;;
32800;SDS011;40572;45.552;12.072;2022-12-07T08:06:20;16.03;;;12.43;;
32800;SDS011;40572;45.552;12.072;2022-12-07T08:08:46;16.07;;;12.93;;
32800;SDS011;40572;45.552;12.072;2022-12-07T08:11:12;15.27;;;11.67;;
32800;SDS011;40572;45.552;12.072;2022-12-07T08:13:38;16.64;;;11.46;;
32800;SDS011;40572;45.552;12.072;2022-12-07T08:16:10;12.00;;;10.73;;
32800;SDS011;40572;45.552;12.072;2022-12-07T08:18:35;14.40;;;12.27;;
32800;SDS011;40572;45.552;12.072;2022-12-07T08:21:00;14.45;;;12.00;;
32800;SDS011;40572;45.552;12.072;2022-12-07T08:23:29;15.40;;;11.93;;
32800;SDS011;40572;45.552;12.072;2022-12-07T08:25:55;13.22;;;10.23;;
32800;SDS011;40572;45.552;12.072;2022-12-07T08:28:21;14.60;;;11.57;;
32800;SDS011;40572;45.552;12.072;2022-12-07T08:30:47;13.45;;;11.15;;
32800;SDS011;40572;45.552;12.072;2022-12-07T08:33:13;14.35;;;10.95;;
32800;SDS011;40572;45.552;12.072;2022-12-07T08:35:39;14.85;;;10.72;;
32800;SDS011;40572;45.552;12.072;2022-12-07T08:38:05;13.63;;;10.83;;
32800;SDS011;40572;45.552;12.072;2022-12-07T08:40:31;12.57;;;10.50;;
32800;SDS011;40572;45.552;12.072;2022-12-07T08:42:58;13.97;;;10.93;;
32800;SDS011;40572;45.552;12.072;2022-12-07T08:45:24;12.90;;;9.97;;
32800;SDS011;40572;45.552;12.072;2022-12-07T08:50:30;13.50;;;10.40;;
32800;SDS011;40572;45.552;12.072;2022-12-07T08:52:57;12.93;;;10.33;;
32800;SDS011;40572;45.552;12.072;2022-12-07T08:55:24;16.03;;;10.73;;
32800;SDS011;40572;45.552;12.072;2022-12-07T08:57:50;13.43;;;10.75;;
32800;SDS011;40572;45.552;12.072;2022-12-07T09:00:16;15.27;;;11.20;;
32800;SDS011;40572;45.552;12.072;2022-12-07T09:02:43;12.85;;;10.38;;
32800;SDS011;40572;45.552;12.072;2022-12-07T09:05:09;13.63;;;10.40;;
32800;SDS011;40572;45.552;12.072;2022-12-07T09:07:35;12.35;;;9.75;;
32800;SDS011;40572;45.552;12.072;2022-12-07T09:10:02;12.80;;;9.23;;
32800;SDS011;40572;45.552;12.072;2022-12-07T09:12:29;11.93;;;8.77;;
32800;SDS011;40572;45.552;12.072;2022-12-07T09:14:55;10.80;;;8.30;;
32800;SDS011;40572;45.552;12.072;2022-12-07T09:17:21;10.45;;;8.33;;
32800;SDS011;40572;45.552;12.072;2022-12-07T09:19:47;13.68;;;9.20;;
32800;SDS011;40572;45.552;12.072;2022-12-07T09:22:13;12.13;;;8.28;;
32800;SDS011;40572;45.552;12.072;2022-12-07T09:24:39;11.25;;;8.80;;
32800;SDS011;40572;45.552;12.072;2022-12-07T09:27:05;10.03;;;8.13;;
32800;SDS011;40572;45.552;12.072;2022-12-07T09:29:31;12.47;;;8.70;;
32800;SDS011;40572;45.552;12.072;2022-12-07T09:31:58;12.37;;;9.07;;
32800;SDS011;40572;45.552;12.072;2022-12-07T09:34:24;9.63;;;7.37;;
32800;SDS011;40572;45.552;12.072;2022-12-07T09:36:52;9.88;;;7.55;;
32800;SDS011;40572;45.552;12.072;2022-12-07T09:39:18;9.80;;;7.43;;
32800;SDS011;40572;45.552;12.072;2022-12-07T09:41:45;10.45;;;7.33;;
32800;SDS011;40572;45.552;12.072;2022-12-07T09:44:12;8.63;;;6.77;;
32800;SDS011;40572;45.552;12.072;2022-12-07T09:46:40;8.48;;;7.00;;
32800;SDS011;40572;45.552;12.072;2022-12-07T09:49:19;10.00;;;7.73;;
32800;SDS011;40572;45.552;12.072;2022-12-07T09:51:46;11.97;;;8.23;;
32800;SDS011;40572;45.552;12.072;2022-12-07T09:54:13;11.47;;;7.33;;
32800;SDS011;40572;45.552;12.072;2022-12-07T09:56:40;13.87;;;7.93;;
32800;SDS011;40572;45.552;12.072;2022-12-07T09:59:09;11.40;;;8.03;;
32800;SDS011;40572;45.552;12.072;2022-12-07T10:01:34;10.47;;;8.07;;
32800;SDS011;40572;45.552;12.072;2022-12-07T10:04:12;12.53;;;7.57;;
32800;SDS011;40572;45.552;12.072;2022-12-07T10:06:38;10.50;;;7.30;;
32800;SDS011;40572;45.552;12.072;2022-12-07T10:09:14;12.63;;;8.40;;
32800;SDS011;40572;45.552;12.072;2022-12-07T10:14:10;12.63;;;7.90;;
32800;SDS011;40572;45.552;12.072;2022-12-07T10:16:42;11.97;;;7.87;;
32800;SDS011;40572;45.552;12.072;2022-12-07T10:19:22;13.33;;;8.23;;
32800;SDS011;40572;45.552;12.072;2022-12-07T10:24:29;11.80;;;8.33;;
32800;SDS011;40572;45.552;12.072;2022-12-07T10:26:56;10.03;;;7.40;;
32800;SDS011;40572;45.552;12.072;2022-12-07T10:29:23;11.68;;;7.95;;
32800;SDS011;40572;45.552;12.072;2022-12-07T10:31:54;12.30;;;8.47;;
32800;SDS011;40572;45.552;12.072;2022-12-07T10:34:25;11.47;;;8.13;;
32800;SDS011;40572;45.552;12.072;2022-12-07T10:36:49;12.05;;;8.48;;
32800;SDS011;40572;45.552;12.072;2022-12-07T10:39:17;10.15;;;7.28;;
32800;SDS011;40572;45.552;12.072;2022-12-07T10:44:23;10.20;;;7.07;;
32800;SDS011;40572;45.552;12.072;2022-12-07T10:54:51;11.00;;;6.87;;
32800;SDS011;40572;45.552;12.072;2022-12-07T10:57:22;10.60;;;7.07;;
32800;SDS011;40572;45.552;12.072;2022-12-07T11:02:25;7.95;;;6.45;;
32800;SDS011;40572;45.552;12.072;2022-12-07T11:05:11;8.23;;;6.30;;
32800;SDS011;40572;45.552;12.072;2022-12-07T11:12:53;7.33;;;6.03;;
32800;SDS011;40572;45.552;12.072;2022-12-07T11:22:59;7.13;;;4.67;;
32800;SDS011;40572;45.552;12.072;2022-12-07T11:25:34;7.87;;;6.13;;
32800;SDS011;40572;45.552;12.072;2022-12-07T11:35:40;6.77;;;3.80;;
32800;SDS011;40572;45.552;12.072;2022-12-07T11:38:28;9.67;;;8.07;;
32800;SDS011;40572;45.552;12.072;2022-12-07T11:40:35;6.53;;;5.72;;
32800;SDS011;40572;45.552;12.072;2022-12-07T11:45:56;6.93;;;4.87;;
32800;SDS011;40572;45.552;12.072;2022-12-07T11:48:20;5.13;;;4.07;;
32800;SDS011;40572;45.552;12.072;2022-12-07T11:50:47;7.17;;;5.10;;
32800;SDS011;40572;45.552;12.072;2022-12-07T11:55:47;4.63;;;3.90;;
32800;SDS011;40572;45.552;12.072;2022-12-07T11:58:20;6.03;;;4.93;;
32800;SDS011;40572;45.552;12.072;2022-12-07T12:00:40;4.70;;;3.83;;
32800;SDS011;40572;45.552;12.072;2022-12-07T12:03:11;11.43;;;10.40;;
32800;SDS011;40572;45.552;12.072;2022-12-07T12:05:37;7.85;;;7.05;;
32800;SDS011;40572;45.552;12.072;2022-12-07T12:10:55;5.40;;;4.83;;
32800;SDS011;40572;45.552;12.072;2022-12-07T12:13:15;7.20;;;4.83;;
32800;SDS011;40572;45.552;12.072;2022-12-07T12:21:01;9.27;;;6.70;;
32800;SDS011;40572;45.552;12.072;2022-12-07T12:26:01;5.80;;;4.07;;
32800;SDS011;40572;45.552;12.072;2022-12-07T12:28:37;5.70;;;4.20;;
32800;SDS011;40572;45.552;12.072;2022-12-07T12:33:50;5.70;;;4.97;;
32800;SDS011;40572;45.552;12.072;2022-12-07T12:46:37;6.00;;;4.97;;
32800;SDS011;40572;45.552;12.072;2022-12-07T12:56:50;7.83;;;4.60;;
32800;SDS011;40572;45.552;12.072;2022-12-07T12:59:22;5.43;;;4.63;;
32800;SDS011;40572;45.552;12.072;2022-12-07T13:01:46;5.27;;;4.77;;
32800;SDS011;40572;45.552;12.072;2022-12-07T13:04:29;7.00;;;4.83;;
32800;SDS011;40572;45.552;12.072;2022-12-07T13:06:55;7.17;;;5.13;;
32800;SDS011;40572;45.552;12.072;2022-12-07T13:09:26;6.33;;;5.35;;
32800;SDS011;40572;45.552;12.072;2022-12-07T13:11:49;6.57;;;5.50;;
32800;SDS011;40572;45.552;12.072;2022-12-07T13:17:02;7.20;;;5.27;;
32800;SDS011;40572;45.552;12.072;2022-12-07T13:20:39;8.37;;;6.63;;
32800;SDS011;40572;45.552;12.072;2022-12-07T13:21:56;7.08;;;5.15;;
32800;SDS011;40572;45.552;12.072;2022-12-07T13:24:22;7.33;;;5.87;;
32800;SDS011;40572;45.552;12.072;2022-12-07T13:26:49;7.03;;;6.27;;
32800;SDS011;40572;45.552;12.072;2022-12-07T13:29:21;12.73;;;9.10;;
32800;SDS011;40572;45.552;12.072;2022-12-07T13:31:49;6.63;;;5.00;;
32800;SDS011;40572;45.552;12.072;2022-12-07T13:37:00;11.63;;;10.37;;
32800;SDS011;40572;45.552;12.072;2022-12-07T13:39:27;10.77;;;9.67;;
32800;SDS011;40572;45.552;12.072;2022-12-07T13:41:55;8.57;;;7.80;;
32800;SDS011;40572;45.552;12.072;2022-12-07T13:44:23;7.70;;;6.90;;
32800;SDS011;40572;45.552;12.072;2022-12-07T13:49:29;6.83;;;5.80;;
32800;SDS011;40572;45.552;12.072;2022-12-07T13:52:08;6.63;;;5.10;;
32800;SDS011;40572;45.552;12.072;2022-12-07T13:54:23;6.33;;;5.07;;
32800;SDS011;40572;45.552;12.072;2022-12-07T13:56:51;5.67;;;4.80;;
32800;SDS011;40572;45.552;12.072;2022-12-07T13:59:21;6.07;;;4.60;;
32800;SDS011;40572;45.552;12.072;2022-12-07T14:01:49;5.87;;;4.70;;
32800;SDS011;40572;45.552;12.072;2022-12-07T14:04:35;8.93;;;5.07;;
32800;SDS011;40572;45.552;12.072;2022-12-07T14:07:01;12.10;;;11.00;;
32800;SDS011;40572;45.552;12.072;2022-12-07T14:09:29;7.00;;;6.37;;
32800;SDS011;40572;45.552;12.072;2022-12-07T14:11:56;6.27;;;5.10;;
32800;SDS011;40572;45.552;12.072;2022-12-07T14:14:23;7.47;;;4.20;;
32800;SDS011;40572;45.552;12.072;2022-12-07T14:16:58;6.13;;;4.73;;
32800;SDS011;40572;45.552;12.072;2022-12-07T14:21:49;5.03;;;4.47;;
32800;SDS011;40572;45.552;12.072;2022-12-07T14:24:18;13.00;;;11.75;;
32800;SDS011;40572;45.552;12.072;2022-12-07T14:26:46;6.67;;;5.87;;
32800;SDS011;40572;45.552;12.072;2022-12-07T14:31:51;8.63;;;4.60;;
32800;SDS011;40572;45.552;12.072;2022-12-07T14:34:23;5.57;;;4.67;;
32800;SDS011;40572;45.552;12.072;2022-12-07T14:36:46;6.08;;;4.25;;
32800;SDS011;40572;45.552;12.072;2022-12-07T14:39:12;4.83;;;3.97;;
32800;SDS011;40572;45.552;12.072;2022-12-07T14:41:38;7.50;;;4.95;;
32800;SDS011;40572;45.552;12.072;2022-12-07T14:44:17;6.80;;;5.00;;
32800;SDS011;40572;45.552;12.072;2022-12-07T14:46:45;6.63;;;5.10;;
32800;SDS011;40572;45.552;12.072;2022-12-07T14:49:11;7.90;;;4.87;;
32800;SDS011;40572;45.552;12.072;2022-12-07T14:51:37;5.12;;;4.62;;
32800;SDS011;40572;45.552;12.072;2022-12-07T14:54:05;6.60;;;5.10;;
32800;SDS011;40572;45.552;12.072;2022-12-07T14:56:32;6.60;;;4.67;;
32800;SDS011;40572;45.552;12.072;2022-12-07T14:58:58;5.67;;;4.67;;
32800;SDS011;40572;45.552;12.072;2022-12-07T15:01:24;7.33;;;5.40;;
32800;SDS011;40572;45.552;12.072;2022-12-07T15:03:50;7.53;;;5.72;;
32800;SDS011;40572;45.552;12.072;2022-12-07T15:06:17;6.27;;;5.47;;
32800;SDS011;40572;45.552;12.072;2022-12-07T15:08:43;8.10;;;5.10;;
32800;SDS011;40572;45.552;12.072;2022-12-07T15:11:11;7.25;;;5.05;;
32800;SDS011;40572;45.552;12.072;2022-12-07T15:13:37;6.80;;;5.45;;
32800;SDS011;40572;45.552;12.072;2022-12-07T15:16:22;7.63;;;4.60;;
32800;SDS011;40572;45.552;12.072;2022-12-07T15:18:48;6.53;;;4.65;;
32800;SDS011;40572;45.552;12.072;2022-12-07T15:21:14;5.50;;;4.75;;
32800;SDS011;40572;45.552;12.072;2022-12-07T15:23:41;5.77;;;4.60;;
32800;SDS011;40572;45.552;12.072;2022-12-07T15:26:07;5.87;;;4.62;;
32800;SDS011;40572;45.552;12.072;2022-12-07T15:28:33;5.70;;;4.80;;
32800;SDS011;40572;45.552;12.072;2022-12-07T15:30:59;6.50;;;4.87;;
32800;SDS011;40572;45.552;12.072;2022-12-07T15:33:25;6.73;;;5.00;;
32800;SDS011;40572;45.552;12.072;2022-12-07T15:35:51;8.68;;;5.60;;
32800;SDS011;40572;45.552;12.072;2022-12-07T15:38:18;5.13;;;4.53;;
32800;SDS011;40572;45.552;12.072;2022-12-07T15:40:46;6.10;;;5.13;;
32800;SDS011;40572;45.552;12.072;2022-12-07T15:43:12;9.27;;;6.67;;
32800;SDS011;40572;45.552;12.072;2022-12-07T15:45:56;7.77;;;5.70;;
32800;SDS011;40572;45.552;12.072;2022-12-07T15:48:22;8.33;;;5.40;;
32800;SDS011;40572;45.552;12.072;2022-12-07T15:50:48;8.10;;;6.03;;
32800;SDS011;40572;45.552;12.072;2022-12-07T15:53:14;7.90;;;5.33;;
32800;SDS011;40572;45.552;12.072;2022-12-07T15:55:40;9.10;;;5.40;;
32800;SDS011;40572;45.552;12.072;2022-12-07T16:00:32;6.23;;;5.30;;
32800;SDS011;40572;45.552;12.072;2022-12-07T16:02:58;10.75;;;6.78;;
32800;SDS011;40572;45.552;12.072;2022-12-07T16:05:24;9.53;;;7.10;;
32800;SDS011;40572;45.552;12.072;2022-12-07T16:07:50;9.67;;;7.50;;
32800;SDS011;40572;45.552;12.072;2022-12-07T16:10:16;12.10;;;7.65;;
32800;SDS011;40572;45.552;12.072;2022-12-07T16:12:42;10.17;;;7.00;;
32800;SDS011;40572;45.552;12.072;2022-12-07T16:15:09;8.47;;;6.77;;
32800;SDS011;40572;45.552;12.072;2022-12-07T16:17:35;8.93;;;6.90;;
32800;SDS011;40572;45.552;12.072;2022-12-07T16:20:01;9.27;;;7.30;;
32800;SDS011;40572;45.552;12.072;2022-12-07T16:22:28;10.45;;;8.23;;
32800;SDS011;40572;45.552;12.072;2022-12-07T16:24:54;12.20;;;10.37;;
32800;SDS011;40572;45.552;12.072;2022-12-07T16:27:20;18.43;;;12.77;;
32800;SDS011;40572;45.552;12.072;2022-12-07T16:29:46;12.60;;;9.50;;
32800;SDS011;40572;45.552;12.072;2022-12-07T16:32:13;12.20;;;9.37;;
32800;SDS011;40572;45.552;12.072;2022-12-07T16:34:39;32.30;;;21.50;;
32800;SDS011;40572;45.552;12.072;2022-12-07T16:37:06;35.47;;;24.33;;
32800;SDS011;40572;45.552;12.072;2022-12-07T16:39:32;29.47;;;19.47;;
32800;SDS011;40572;45.552;12.072;2022-12-07T16:41:59;26.00;;;18.83;;
32800;SDS011;40572;45.552;12.072;2022-12-07T16:44:25;27.00;;;18.93;;
32800;SDS011;40572;45.552;12.072;2022-12-07T16:46:51;24.23;;;17.27;;
32800;SDS011;40572;45.552;12.072;2022-12-07T16:49:18;22.00;;;14.83;;
32800;SDS011;40572;45.552;12.072;2022-12-07T16:51:44;19.95;;;13.53;;
32800;SDS011;40572;45.552;12.072;2022-12-07T16:54:12;21.02;;;14.13;;
32800;SDS011;40572;45.552;12.072;2022-12-07T16:59:03;15.73;;;11.60;;